createdAt,value
2022-12-03T00:01:14.024Z,101717.06
2022-12-03T00:03:40.784Z,101722.19
2022-12-03T00:06:07.681Z,101719.56
2022-12-03T00:08:34.889Z,101720.53
2022-12-03T00:11:01.572Z,101716.75
2022-12-03T00:13:28.108Z,101720.19
2022-12-03T00:15:54.686Z,101716.41
2022-12-03T00:18:21.315Z,101711.16
2022-12-03T00:20:47.988Z,101708.53
2022-12-03T00:23:14.509Z,101708.34
2022-12-03T00:25:40.991Z,101714.44
2022-12-03T00:28:07.786Z,101713.44
2022-12-03T00:30:34.319Z,101710.97
2022-12-03T00:33:00.793Z,101705.91
2022-12-03T00:35:27.311Z,101706.72
2022-12-03T00:37:54.730Z,101707.03
2022-12-03T00:40:21.294Z,101708.38
2022-12-03T00:42:47.987Z,101715.63
2022-12-03T00:45:14.677Z,101714.66
2022-12-03T00:47:41.143Z,101706.63
2022-12-03T00:50:08.341Z,101708.94
2022-12-03T00:52:34.843Z,101711.78
2022-12-03T00:55:01.405Z,101711.44
2022-12-03T00:57:27.911Z,101711.31
2022-12-03T00:59:54.377Z,101705.91
2022-12-03T01:02:20.932Z,101709.84
2022-12-03T01:04:47.631Z,101714.13
2022-12-03T01:07:14.498Z,101706.56
2022-12-03T01:09:47.033Z,101711.50
2022-12-03T01:12:13.626Z,101703.94
2022-12-03T01:14:40.454Z,101704.94
2022-12-03T01:17:06.945Z,101699.88
2022-12-03T01:19:35.288Z,101699.53
2022-12-03T01:22:02.125Z,101695.75
2022-12-03T01:24:28.627Z,101699.06
2022-12-03T01:26:56.626Z,101696.06
2022-12-03T01:29:23.347Z,101696.72
2022-12-03T01:32:08.289Z,101691.50
2022-12-03T01:34:34.899Z,101689.19
2022-12-03T01:37:01.395Z,101693.81
2022-12-03T01:39:27.951Z,101691.31
2022-12-03T01:41:55.490Z,101701.00
2022-12-03T01:44:30.927Z,101700.50
2022-12-03T01:47:00.450Z,101701.00
2022-12-03T01:49:31.538Z,101699.19
2022-12-03T01:51:59.367Z,101694.13
2022-12-03T01:54:30.275Z,101695.44
2022-12-03T01:56:56.943Z,101703.63
2022-12-03T01:59:33.189Z,101696.72
2022-12-03T02:02:05.758Z,101698.84
2022-12-03T02:04:32.700Z,101704.59
2022-12-03T02:07:16.747Z,101701.78
2022-12-03T02:09:43.208Z,101702.47
2022-12-03T02:12:09.972Z,101700.66
2022-12-03T02:14:36.542Z,101697.53
2022-12-03T02:17:03.038Z,101694.72
2022-12-03T02:19:30.172Z,101695.56
2022-12-03T02:22:12.078Z,101691.13
2022-12-03T02:25:13.744Z,101687.50
2022-12-03T02:27:41.240Z,101696.19
2022-12-03T02:30:08.810Z,101698.00
2022-12-03T02:32:35.458Z,101704.56
2022-12-03T02:35:01.970Z,101706.53
2022-12-03T02:37:36.638Z,101703.28
2022-12-03T02:40:10.742Z,101708.84
2022-12-03T02:42:37.707Z,101714.91
2022-12-03T02:45:26.347Z,101701.97
2022-12-03T02:47:57.685Z,101700.97
2022-12-03T02:50:30.078Z,101700.34
2022-12-03T02:53:01.270Z,101687.22
2022-12-03T02:55:36.506Z,101700.47
2022-12-03T02:58:05.051Z,101694.41
2022-12-03T03:00:31.724Z,101697.38
2022-12-03T03:02:58.562Z,101697.38
2022-12-03T03:05:25.477Z,101695.56
2022-12-03T03:07:52.194Z,101695.56
2022-12-03T03:10:23.067Z,101698.84
2022-12-03T03:12:51.986Z,101693.59
2022-12-03T03:15:18.695Z,101696.56
2022-12-03T03:17:45.332Z,101699.03
2022-12-03T03:20:12.839Z,101693.78
2022-12-03T03:22:41.605Z,101701.00
2022-12-03T03:25:15.461Z,101700.34
2022-12-03T03:27:42.605Z,101694.44
2022-12-03T03:30:10.383Z,101691.81
2022-12-03T03:32:38.405Z,101693.63
2022-12-03T03:35:06.409Z,101694.44
2022-12-03T03:37:33.001Z,101687.22
2022-12-03T03:39:59.586Z,101689.00
2022-12-03T03:42:26.162Z,101690.19
2022-12-03T03:44:52.938Z,101689.50
2022-12-03T03:47:21.003Z,101687.25
2022-12-03T03:49:49.529Z,101686.75
2022-12-03T03:52:16.191Z,101691.34
2022-12-03T03:54:42.865Z,101693.47
2022-12-03T03:57:09.386Z,101685.91
2022-12-03T03:59:36.226Z,101685.28
2022-12-03T04:02:02.905Z,101683.78
2022-12-03T04:04:34.221Z,101685.13
2022-12-03T04:07:00.868Z,101679.88
2022-12-03T04:09:27.343Z,101681.69
2022-12-03T04:12:12.455Z,101673.81
2022-12-03T04:14:39.052Z,101684.16
2022-12-03T04:17:05.490Z,101684.16
2022-12-03T04:19:31.982Z,101688.91
2022-12-03T04:22:17.102Z,101674.31
2022-12-03T04:24:43.635Z,101668.72
2022-12-03T04:27:28.805Z,101664.47
2022-12-03T04:29:55.289Z,101669.53
2022-12-03T04:32:40.500Z,101656.13
2022-12-03T04:35:26.101Z,101655.63
2022-12-03T04:37:52.620Z,101659.38
2022-12-03T04:40:37.485Z,101653.00
2022-12-03T04:43:04.038Z,101653.34
2022-12-03T04:45:30.688Z,101648.09
2022-12-03T04:47:57.161Z,101643.84
2022-12-03T04:50:23.726Z,101637.94
2022-12-03T04:52:50.220Z,101638.25
2022-12-03T04:55:16.825Z,101633.16
2022-12-03T04:57:43.323Z,101633.16
2022-12-03T05:00:10.466Z,101640.22
2022-12-03T05:02:37.072Z,101628.09
2022-12-03T05:05:03.808Z,101626.28
2022-12-03T05:07:30.376Z,101628.75
2022-12-03T05:09:56.978Z,101624.16
2022-12-03T05:12:23.494Z,101623.34
2022-12-03T05:14:49.956Z,101623.34
2022-12-03T05:17:16.456Z,101622.66
2022-12-03T05:20:01.673Z,101621.69
2022-12-03T05:22:28.127Z,101616.28
2022-12-03T05:24:54.980Z,101611.34
2022-12-03T05:27:23.923Z,101604.97
2022-12-03T05:29:50.873Z,101603.78
2022-12-03T05:32:17.371Z,101601.97
2022-12-03T05:34:43.876Z,101597.41
2022-12-03T05:37:10.473Z,101598.22
2022-12-03T05:39:37.211Z,101597.22
2022-12-03T05:42:22.966Z,101586.56
2022-12-03T05:44:49.476Z,101589.19
2022-12-03T05:47:16.080Z,101594.44
2022-12-03T05:49:42.684Z,101589.53
2022-12-03T05:52:09.185Z,101584.63
2022-12-03T05:54:35.752Z,101581.34
2022-12-03T05:57:02.233Z,101575.78
2022-12-03T05:59:28.722Z,101576.13
2022-12-03T06:01:55.365Z,101574.84
2022-12-03T06:04:21.964Z,101574.16
2022-12-03T06:06:48.460Z,101572.69
2022-12-03T06:09:14.973Z,101572.88
2022-12-03T06:11:41.552Z,101566.97
2022-12-03T06:14:08.383Z,101571.38
2022-12-03T06:16:34.906Z,101581.41
2022-12-03T06:19:01.662Z,101574.66
2022-12-03T06:21:28.156Z,101561.25
2022-12-03T06:23:58.097Z,101560.59
2022-12-03T06:26:24.805Z,101566.16
2022-12-03T06:28:51.265Z,101558.66
2022-12-03T06:31:17.851Z,101568.66
2022-12-03T06:33:44.533Z,101560.44
2022-12-03T06:36:11.051Z,101567.97
2022-12-03T06:38:37.506Z,101563.06
2022-12-03T06:41:04.041Z,101557.34
2022-12-03T06:43:31.432Z,101563.88
2022-12-03T06:45:57.940Z,101559.63
2022-12-03T06:48:24.442Z,101559.63
2022-12-03T06:50:51.017Z,101555.53
2022-12-03T06:53:17.474Z,101556.84
2022-12-03T06:55:44.017Z,101551.59
2022-12-03T06:58:10.609Z,101549.47
2022-12-03T07:00:37.122Z,101552.94
2022-12-03T07:03:04.056Z,101549.97
2022-12-03T07:05:30.575Z,101549.16
2022-12-03T07:07:57.255Z,101546.53
2022-12-03T07:10:23.845Z,101547.34
2022-12-03T07:12:50.324Z,101546.53
2022-12-03T07:15:16.960Z,101544.09
2022-12-03T07:17:43.540Z,101539.16
2022-12-03T07:20:10.649Z,101546.84
2022-12-03T07:22:38.343Z,101540.66
2022-12-03T07:25:05.912Z,101544.09
2022-12-03T07:27:32.386Z,101533.41
2022-12-03T07:29:59.000Z,101543.09
2022-12-03T07:32:25.521Z,101544.72
2022-12-03T07:34:52.373Z,101541.13
2022-12-03T07:37:23.086Z,101544.56
2022-12-03T07:39:50.201Z,101534.91
2022-12-03T07:42:16.734Z,101545.38
2022-12-03T07:44:43.189Z,101543.75
2022-12-03T07:47:09.771Z,101544.22
2022-12-03T07:49:36.311Z,101547.84
2022-12-03T07:52:02.764Z,101543.41
2022-12-03T07:54:29.245Z,101553.91
2022-12-03T07:57:01.121Z,101546.03
2022-12-03T07:59:28.619Z,101536.38
2022-12-03T08:01:55.148Z,101530.81
2022-12-03T08:04:22.087Z,101538.16
2022-12-03T08:06:49.236Z,101537.34
2022-12-03T08:09:16.366Z,101532.09
2022-12-03T08:11:45.507Z,101530.97
2022-12-03T08:14:17.099Z,101524.72
2022-12-03T08:16:46.185Z,101529.66
2022-12-03T08:19:15.346Z,101530.13
2022-12-03T08:21:42.479Z,101520.94
2022-12-03T08:24:15.228Z,101520.94
2022-12-03T08:26:44.352Z,101527.31
2022-12-03T08:29:12.732Z,101527.31
2022-12-03T08:31:39.696Z,101520.13
2022-12-03T08:34:18.503Z,101528.63
2022-12-03T08:36:46.227Z,101520.41
2022-12-03T08:39:34.037Z,101513.38
2022-12-03T08:42:38.559Z,101513.22
2022-12-03T08:45:32.673Z,101520.56
2022-12-03T08:48:10.165Z,101518.75
2022-12-03T08:50:40.767Z,101519.56
2022-12-03T08:53:13.276Z,101516.63
2022-12-03T08:55:47.325Z,101508.91
2022-12-03T08:58:43.877Z,101515.63
2022-12-03T09:01:10.631Z,101508.56
2022-12-03T09:03:39.547Z,101507.47
2022-12-03T09:06:06.376Z,101512.72
2022-12-03T09:08:32.888Z,101494.88
2022-12-03T09:10:59.409Z,101506.50
2022-12-03T09:13:25.871Z,101501.44
2022-12-03T09:15:52.439Z,101510.91
2022-12-03T09:18:19.205Z,101500.44
2022-12-03T09:20:45.714Z,101498.44
2022-12-03T09:23:12.222Z,101500.75
2022-12-03T09:25:38.697Z,101494.16
2022-12-03T09:28:05.332Z,101487.78
2022-12-03T09:30:32.055Z,101492.69
2022-12-03T09:33:00.054Z,101494.63
2022-12-03T09:35:27.567Z,101494.28
2022-12-03T09:38:09.310Z,101488.72
2022-12-03T09:40:35.890Z,101487.53
2022-12-03T09:43:02.474Z,101484.75
2022-12-03T09:45:29.047Z,101479.97
2022-12-03T09:47:55.736Z,101470.94
2022-12-03T09:50:25.465Z,101475.84
2022-12-03T09:52:55.191Z,101477.94
2022-12-03T09:55:24.220Z,101472.38
2022-12-03T09:57:56.264Z,101475.47
2022-12-03T10:00:25.550Z,101474.13
2022-12-03T10:02:54.900Z,101469.66
2022-12-03T10:05:22.635Z,101460.44
2022-12-03T10:07:50.735Z,101464.63
2022-12-03T10:10:22.672Z,101464.94
2022-12-03T10:12:50.779Z,101467.84
2022-12-03T10:15:19.871Z,101468.31
2022-12-03T10:17:47.759Z,101464.16
2022-12-03T10:20:17.033Z,101462.81
2022-12-03T10:22:43.863Z,101459.31
2022-12-03T10:25:15.951Z,101451.91
2022-12-03T10:27:43.118Z,101448.59
2022-12-03T10:30:19.733Z,101437.19
2022-12-03T10:32:51.201Z,101442.72
2022-12-03T10:35:21.347Z,101432.69
2022-12-03T10:38:18.515Z,101432.94
2022-12-03T10:40:46.228Z,101431.44
2022-12-03T10:43:18.572Z,101424.63
2022-12-03T10:46:12.712Z,101427.19
2022-12-03T10:48:39.363Z,101421.84
2022-12-03T10:51:15.886Z,101422.41
2022-12-03T10:53:42.534Z,101420.28
2022-12-03T10:56:17.858Z,101413.13
2022-12-03T10:58:44.596Z,101408.75
2022-12-03T11:01:21.454Z,101413.94
2022-12-03T11:03:48.875Z,101405.88
2022-12-03T11:06:21.200Z,101402.88
2022-12-03T11:08:57.829Z,101400.34
2022-12-03T11:11:31.023Z,101391.88
2022-12-03T11:14:02.684Z,101398.41
2022-12-03T11:16:41.422Z,101394.41
2022-12-03T11:19:40.206Z,101388.41
2022-12-03T11:22:06.699Z,101388.66
2022-12-03T11:24:35.319Z,101380.03
2022-12-03T11:27:01.787Z,101375.25
2022-12-03T11:29:46.990Z,101363.72
2022-12-03T11:32:39.354Z,101357.06
2022-12-03T11:35:25.801Z,101356.88
2022-12-03T11:37:52.894Z,101363.38
2022-12-03T11:40:19.367Z,101358.13
2022-12-03T11:42:47.481Z,101355.31
2022-12-03T11:45:22.364Z,101347.66
2022-12-03T11:47:57.961Z,101351.16
2022-12-03T11:50:53.728Z,101344.13
2022-12-03T11:53:23.772Z,101335.06
2022-12-03T11:56:08.400Z,101337.75
2022-12-03T11:58:39.974Z,101332.59
2022-12-03T12:01:07.964Z,101326.16
2022-12-03T12:03:49.130Z,101323.78
2022-12-03T12:06:21.152Z,101335.34
2022-12-03T12:08:50.719Z,101326.66
2022-12-03T12:11:19.438Z,101324.03
2022-12-03T12:13:51.092Z,101317.56
2022-12-03T12:16:46.064Z,101314.94
2022-12-03T12:19:37.462Z,101306.81
2022-12-03T12:22:22.556Z,101312.50
2022-12-03T12:24:54.417Z,101302.75
2022-12-03T12:27:32.944Z,101300.56
2022-12-03T12:30:15.777Z,101298.34
2022-12-03T12:32:46.198Z,101289.84
2022-12-03T12:35:33.069Z,101298.34
2022-12-03T12:38:17.545Z,101281.50
2022-12-03T12:40:46.852Z,101285.97
2022-12-03T12:43:27.704Z,101275.66
2022-12-03T12:45:56.677Z,101273.25
2022-12-03T12:48:27.120Z,101270.59
2022-12-03T12:51:08.628Z,101272.06
2022-12-03T12:53:36.497Z,101266.56
2022-12-03T12:56:22.025Z,101258.03
2022-12-03T12:58:48.646Z,101258.84
2022-12-03T13:01:26.528Z,101253.13
2022-12-03T13:03:53.241Z,101254.38
2022-12-03T13:06:26.065Z,101248.06
2022-12-03T13:08:53.101Z,101250.69
2022-12-03T13:11:36.912Z,101246.84
2022-12-03T13:14:21.920Z,101242.56
2022-12-03T13:16:50.436Z,101246.81
2022-12-03T13:19:29.032Z,101247.84
2022-12-03T13:22:10.511Z,101239.28
2022-12-03T13:24:57.454Z,101229.34
2022-12-03T13:27:29.695Z,101231.34
2022-12-03T13:30:00.693Z,101220.41
2022-12-03T13:32:31.347Z,101225.69
2022-12-03T13:35:13.251Z,101223.84
2022-12-03T13:37:39.744Z,101220.22
2022-12-03T13:40:20.091Z,101211.47
2022-12-03T13:42:46.837Z,101207.84
2022-12-03T13:45:16.479Z,101208.63
2022-12-03T13:47:47.673Z,101200.31
2022-12-03T13:50:36.115Z,101194.00
2022-12-03T13:53:21.804Z,101195.03
2022-12-03T13:55:51.894Z,101195.03
2022-12-03T13:58:18.537Z,101192.59
2022-12-03T14:00:45.599Z,101189.53
2022-12-03T14:03:12.273Z,101195.22
2022-12-03T14:05:38.981Z,101187.13
2022-12-03T14:08:06.275Z,101193.22
2022-12-03T14:10:32.845Z,101182.84
2022-12-03T14:12:59.351Z,101180.19
2022-12-03T14:15:26.522Z,101179.22
2022-12-03T14:17:53.485Z,101181.00
2022-12-03T14:20:20.576Z,101175.72
2022-12-03T14:22:47.058Z,101178.59
2022-12-03T14:25:13.632Z,101175.13
2022-12-03T14:27:40.129Z,101175.34
2022-12-03T14:30:07.184Z,101174.50
2022-12-03T14:32:33.736Z,101172.91
2022-12-03T14:35:02.789Z,101171.28
2022-12-03T14:37:31.751Z,101172.47
2022-12-03T14:39:58.248Z,101166.59
2022-12-03T14:42:24.772Z,101168.44
2022-12-03T14:44:51.979Z,101162.53
2022-12-03T14:47:22.556Z,101153.41
2022-12-03T14:49:49.461Z,101160.09
2022-12-03T14:52:16.618Z,101154.22
2022-12-03T14:54:43.266Z,101157.06
2022-12-03T14:57:12.704Z,101157.06
2022-12-03T14:59:41.239Z,101157.25
2022-12-03T15:02:08.927Z,101153.78
2022-12-03T15:04:35.502Z,101155.84
2022-12-03T15:07:02.030Z,101150.56
2022-12-03T15:09:28.613Z,101147.13
2022-12-03T15:11:55.101Z,101145.69
2022-12-03T15:14:21.729Z,101153.59
2022-12-03T15:16:48.383Z,101144.06
2022-12-03T15:19:15.038Z,101140.78
2022-12-03T15:21:41.624Z,101146.28
2022-12-03T15:24:08.336Z,101148.72
2022-12-03T15:26:35.258Z,101142.03
2022-12-03T15:29:01.929Z,101140.59
2022-12-03T15:31:28.556Z,101136.34
2022-12-03T15:33:55.054Z,101141.00
2022-12-03T15:36:21.546Z,101135.94
2022-12-03T15:38:48.065Z,101142.81
2022-12-03T15:41:28.864Z,101135.31
2022-12-03T15:44:01.928Z,101137.34
2022-12-03T15:46:28.761Z,101135.50
2022-12-03T15:48:55.842Z,101134.88
2022-12-03T15:51:22.714Z,101135.09
2022-12-03T15:53:49.273Z,101138.53
2022-12-03T15:56:16.598Z,101136.94
2022-12-03T15:58:43.273Z,101131.88
2022-12-03T16:01:09.885Z,101121.31
2022-12-03T16:03:36.809Z,101124.94
2022-12-03T16:06:03.525Z,101128.19
2022-12-03T16:08:30.125Z,101124.75
2022-12-03T16:10:56.750Z,101121.31
2022-12-03T16:13:23.282Z,101125.75
2022-12-03T16:15:49.857Z,101132.66
2022-12-03T16:18:16.474Z,101129.41
2022-12-03T16:20:42.957Z,101128.81
2022-12-03T16:23:09.673Z,101130.44
2022-12-03T16:25:36.313Z,101124.53
2022-12-03T16:28:02.906Z,101129.00
2022-12-03T16:30:29.686Z,101116.00
2022-12-03T16:32:56.180Z,101121.28
2022-12-03T16:35:22.729Z,101116.41
2022-12-03T16:37:49.228Z,101112.16
2022-12-03T16:40:15.764Z,101114.78
2022-12-03T16:42:42.366Z,101114.78
2022-12-03T16:45:09.329Z,101114.97
2022-12-03T16:47:36.177Z,101112.34
2022-12-03T16:50:04.603Z,101109.91
2022-12-03T16:52:31.125Z,101109.09
2022-12-03T16:54:57.716Z,101113.56
2022-12-03T16:57:27.603Z,101105.25
2022-12-03T16:59:56.939Z,101101.00
2022-12-03T17:02:23.691Z,101105.25
2022-12-03T17:04:50.172Z,101102.78
2022-12-03T17:07:16.681Z,101104.81
2022-12-03T17:09:43.193Z,101096.91
2022-12-03T17:12:09.636Z,101096.28
2022-12-03T17:14:36.126Z,101101.38
2022-12-03T17:17:02.683Z,101097.13
2022-12-03T17:19:29.451Z,101093.66
2022-12-03T17:21:55.909Z,101095.47
2022-12-03T17:24:22.565Z,101094.06
2022-12-03T17:26:49.097Z,101095.69
2022-12-03T17:29:15.680Z,101092.44
2022-12-03T17:31:43.011Z,101101.19
2022-12-03T17:34:10.155Z,101098.72
2022-12-03T17:36:36.713Z,101101.34
2022-12-03T17:39:03.501Z,101092.84
2022-12-03T17:41:29.971Z,101091.19
2022-12-03T17:43:56.463Z,101084.31
2022-12-03T17:46:22.994Z,101086.94
2022-12-03T17:48:49.663Z,101085.50
2022-12-03T17:51:16.348Z,101079.44
2022-12-03T17:53:42.825Z,101081.47
2022-12-03T17:56:09.618Z,101084.91
2022-12-03T17:58:36.174Z,101081.88
2022-12-03T18:01:03.434Z,101073.34
2022-12-03T18:03:30.585Z,101082.25
2022-12-03T18:05:57.187Z,101084.06
2022-12-03T18:08:23.792Z,101079.81
2022-12-03T18:10:50.373Z,101073.13
2022-12-03T18:13:16.887Z,101072.31
2022-12-03T18:15:43.598Z,101072.53
2022-12-03T18:18:10.515Z,101067.25
2022-12-03T18:20:37.404Z,101069.25
2022-12-03T18:23:05.042Z,101071.88
2022-12-03T18:25:31.645Z,101073.72
2022-12-03T18:27:58.131Z,101073.13
2022-12-03T18:30:24.769Z,101076.75
2022-12-03T18:32:51.311Z,101074.09
2022-12-03T18:35:18.082Z,101071.69
2022-12-03T18:37:44.700Z,101067.22
2022-12-03T18:40:17.612Z,101075.94
2022-12-03T18:42:44.457Z,101072.88
2022-12-03T18:45:13.024Z,101066.81
2022-12-03T18:47:39.660Z,101056.25
2022-12-03T18:50:07.545Z,101065.19
2022-12-03T18:52:34.072Z,101065.56
2022-12-03T18:55:00.560Z,101058.69
2022-12-03T18:57:27.877Z,101058.88
2022-12-03T18:59:54.791Z,101064.13
2022-12-03T19:05:08.894Z,101060.91
2022-12-03T19:07:35.520Z,101060.09
2022-12-03T19:10:02.333Z,101054.81
2022-12-03T19:12:29.292Z,101059.06
2022-12-03T19:14:55.813Z,101058.28
2022-12-03T19:17:22.557Z,101062.72
2022-12-03T19:19:49.051Z,101054.81
2022-12-03T19:22:15.570Z,101051.38
2022-12-03T19:24:42.021Z,101046.91
2022-12-03T19:27:08.493Z,101057.47
2022-12-03T19:29:35.330Z,101056.66
2022-12-03T19:32:02.320Z,101044.28
2022-12-03T19:34:29.282Z,101056.84
2022-12-03T19:36:56.134Z,101050.97
2022-12-03T19:39:22.795Z,101049.34
2022-12-03T19:41:49.510Z,101055.59
2022-12-03T19:44:18.841Z,101051.34
2022-12-03T19:46:45.349Z,101056.63
2022-12-03T19:49:12.009Z,101050.34
2022-12-03T19:51:38.821Z,101045.28
2022-12-03T19:54:07.198Z,101045.28
2022-12-03T19:56:34.393Z,101043.66
2022-12-03T19:59:00.904Z,101048.13
2022-12-03T20:01:32.437Z,101050.75
2022-12-03T20:04:01.612Z,101057.00
2022-12-03T20:06:31.137Z,101051.13
2022-12-03T20:09:04.115Z,101059.84
2022-12-03T20:11:32.683Z,101053.78
2022-12-03T20:14:02.908Z,101057.22
2022-12-03T20:16:30.154Z,101052.97
2022-12-03T20:18:59.326Z,101039.16
2022-12-03T20:21:26.689Z,101043.63
2022-12-03T20:23:53.391Z,101038.56
2022-12-03T20:26:21.627Z,101042.00
2022-12-03T20:28:51.740Z,101038.56
2022-12-03T20:31:20.730Z,101032.06
2022-12-03T20:33:50.070Z,101035.50
2022-12-03T20:36:18.368Z,101038.31
2022-12-03T20:38:45.045Z,101034.88
2022-12-03T20:41:14.996Z,101031.44
2022-12-03T20:43:41.786Z,101037.50
2022-12-03T20:46:10.086Z,101044.81
2022-12-03T20:48:36.886Z,101042.19
2022-12-03T20:51:05.421Z,101044.00
2022-12-03T20:53:33.145Z,101037.91
2022-12-03T20:56:00.860Z,101037.09
2022-12-03T20:58:27.923Z,101038.91
2022-12-03T21:00:54.615Z,101044.19
2022-12-03T21:03:21.566Z,101034.03
2022-12-03T21:05:48.186Z,101026.13
2022-12-03T21:08:14.916Z,101027.97
2022-12-03T21:10:45.340Z,101018.44
2022-12-03T21:13:17.321Z,101023.06
2022-12-03T21:15:44.843Z,101018.03
2022-12-03T21:18:15.205Z,101017.41
2022-12-03T21:20:47.402Z,101005.25
2022-12-03T21:23:14.582Z,101020.44
2022-12-03T21:25:41.276Z,101022.44
2022-12-03T21:28:09.084Z,101018.19
2022-12-03T21:30:39.986Z,101024.28
2022-12-03T21:33:07.117Z,101020.41
2022-12-03T21:35:37.729Z,101019.59
2022-12-03T21:38:05.001Z,101025.66
2022-12-03T21:40:32.835Z,101028.31
2022-12-03T21:42:59.422Z,101021.59
2022-12-03T21:45:26.312Z,101026.47
2022-12-03T21:47:52.933Z,101017.97
2022-12-03T21:50:20.217Z,101026.69
2022-12-03T21:52:46.791Z,101010.88
2022-12-03T21:55:13.277Z,101020.41
2022-12-03T21:57:39.952Z,101016.75
2022-12-03T22:00:08.397Z,101015.94
2022-12-03T22:02:35.098Z,101012.34
2022-12-03T22:05:01.806Z,101008.84
2022-12-03T22:07:28.593Z,101018.56
2022-12-03T22:09:55.391Z,101009.69
2022-12-03T22:12:22.198Z,101001.16
2022-12-03T22:14:48.980Z,101002.19
2022-12-03T22:17:15.536Z,101004.00
2022-12-03T22:19:42.520Z,101001.75
2022-12-03T22:22:09.054Z,100994.88
2022-12-03T22:24:35.544Z,100990.81
2022-12-03T22:27:04.032Z,100991.81
2022-12-03T22:29:30.927Z,100993.00
2022-12-03T22:31:57.404Z,100987.97
2022-12-03T22:34:23.939Z,100990.16
2022-12-03T22:36:50.412Z,100981.84
2022-12-03T22:39:16.944Z,100981.22
2022-12-03T22:41:43.471Z,100981.44
2022-12-03T22:44:10.174Z,100979.00
2022-12-03T22:46:36.787Z,100978.16
2022-12-03T22:49:07.472Z,100990.50
2022-12-03T22:51:34.459Z,100988.09
2022-12-03T22:54:01.843Z,100988.69
2022-12-03T22:56:29.607Z,100995.78
2022-12-03T22:58:56.317Z,100991.72
2022-12-03T23:01:25.591Z,100994.38
2022-12-03T23:03:52.663Z,100992.34
2022-12-03T23:06:20.165Z,100986.06
2022-12-03T23:08:47.129Z,100983.63
2022-12-03T23:11:14.636Z,100980.19
2022-12-03T23:13:41.504Z,100980.19
2022-12-03T23:16:17.203Z,100978.75
2022-12-03T23:18:44.340Z,100975.53
2022-12-03T23:21:15.890Z,100971.44
2022-12-03T23:23:42.884Z,100970.44
2022-12-03T23:26:13.422Z,100962.75
2022-12-03T23:28:41.545Z,100963.94
2022-12-03T23:31:20.571Z,100960.69
2022-12-03T23:33:48.300Z,100965.97
2022-12-03T23:36:15.003Z,100967.16
2022-12-03T23:38:41.591Z,100969.78
2022-12-03T23:41:11.232Z,100963.09
2022-12-03T23:43:38.714Z,100956.19
2022-12-03T23:46:10.729Z,100953.75
2022-12-03T23:48:37.364Z,100953.13
2022-12-03T23:51:09.534Z,100950.91
2022-12-03T23:53:37.387Z,100952.91
2022-12-03T23:56:08.220Z,100952.47
2022-12-03T23:58:34.982Z,100938.50
